Terminal Aerodrome Forecast
Issued by NWS

Home | Current Version | Previous Version | Text Only | Print | Product List | Glossary On
Versions: 1 2 3 4 5 6 7 8 9 10 11 12 13 14 15 16 17 18 19 20 21 22
000
FTUS41 KBGM 211436 AAA
TAFRME
TAF AMD
KRME 211436Z 2115/2212 29009KT P6SM -SHRA OVC060
      TEMPO 2115/2116 27020G30KT PLRA OVC025
     FM211600 27012G25KT P6SM BKN035
      TEMPO 2120/2124 -SHRA
     FM220100 12006KT P6SM BKN100
     FM220900 12007KT P6SM OVC040=

USA.gov is the U.S. government's official web portal to all federal, state and local government web resources and services.